sensor_id;sensor_type;location;lat;lon;timestamp;P1;durP1;ratioP1;P2;durP2;ratioP2
4744;SDS011;2386;42.138;24.746;2023-05-01T00:00:23;13.87;;;8.10;;
4744;SDS011;2386;42.138;24.746;2023-05-01T00:02:49;12.53;;;7.23;;
4744;SDS011;2386;42.138;24.746;2023-05-01T00:05:14;21.00;;;8.80;;
4744;SDS011;2386;42.138;24.746;2023-05-01T00:07:40;13.60;;;8.23;;
4744;SDS011;2386;42.138;24.746;2023-05-01T00:10:06;16.27;;;9.00;;
4744;SDS011;2386;42.138;24.746;2023-05-01T00:12:31;14.73;;;8.10;;
4744;SDS011;2386;42.138;24.746;2023-05-01T00:14:57;16.20;;;8.40;;
4744;SDS011;2386;42.138;24.746;2023-05-01T00:17:22;13.07;;;8.40;;
4744;SDS011;2386;42.138;24.746;2023-05-01T00:19:51;11.80;;;7.73;;
4744;SDS011;2386;42.138;24.746;2023-05-01T00:22:17;13.33;;;7.73;;
4744;SDS011;2386;42.138;24.746;2023-05-01T00:24:42;14.47;;;8.23;;
4744;SDS011;2386;42.138;24.746;2023-05-01T00:27:08;13.60;;;7.53;;
4744;SDS011;2386;42.138;24.746;2023-05-01T00:29:33;14.30;;;7.67;;
4744;SDS011;2386;42.138;24.746;2023-05-01T00:31:59;16.20;;;8.13;;
4744;SDS011;2386;42.138;24.746;2023-05-01T00:34:24;14.33;;;7.83;;
4744;SDS011;2386;42.138;24.746;2023-05-01T00:36:49;16.97;;;7.90;;
4744;SDS011;2386;42.138;24.746;2023-05-01T00:39:15;15.77;;;8.50;;
4744;SDS011;2386;42.138;24.746;2023-05-01T00:41:40;12.67;;;7.83;;
4744;SDS011;2386;42.138;24.746;2023-05-01T00:44:06;18.30;;;8.10;;
4744;SDS011;2386;42.138;24.746;2023-05-01T00:46:31;12.27;;;7.57;;
4744;SDS011;2386;42.138;24.746;2023-05-01T00:48:58;13.77;;;8.30;;
4744;SDS011;2386;42.138;24.746;2023-05-01T00:51:24;15.10;;;7.00;;
4744;SDS011;2386;42.138;24.746;2023-05-01T00:53:52;14.70;;;7.43;;
4744;SDS011;2386;42.138;24.746;2023-05-01T00:56:19;12.00;;;7.47;;
4744;SDS011;2386;42.138;24.746;2023-05-01T00:58:46;11.03;;;5.53;;
4744;SDS011;2386;42.138;24.746;2023-05-01T01:01:16;11.77;;;6.20;;
4744;SDS011;2386;42.138;24.746;2023-05-01T01:03:41;9.60;;;5.53;;
4744;SDS011;2386;42.138;24.746;2023-05-01T01:14:46;9.50;;;5.90;;
4744;SDS011;2386;42.138;24.746;2023-05-01T01:17:19;6.10;;;5.10;;
4744;SDS011;2386;42.138;24.746;2023-05-01T01:22:40;8.80;;;5.37;;
4744;SDS011;2386;42.138;24.746;2023-05-01T01:36:25;11.20;;;6.30;;
4744;SDS011;2386;42.138;24.746;2023-05-01T01:39:05;8.90;;;5.70;;
4744;SDS011;2386;42.138;24.746;2023-05-01T01:41:37;9.93;;;6.20;;
4744;SDS011;2386;42.138;24.746;2023-05-01T01:44:27;10.70;;;6.37;;
4744;SDS011;2386;42.138;24.746;2023-05-01T01:46:54;10.40;;;6.50;;
4744;SDS011;2386;42.138;24.746;2023-05-01T01:49:22;13.97;;;6.97;;
4744;SDS011;2386;42.138;24.746;2023-05-01T01:51:50;10.40;;;6.17;;
4744;SDS011;2386;42.138;24.746;2023-05-01T01:54:18;13.37;;;6.73;;
4744;SDS011;2386;42.138;24.746;2023-05-01T01:56:47;11.57;;;6.77;;
4744;SDS011;2386;42.138;24.746;2023-05-01T01:59:14;12.07;;;7.10;;
4744;SDS011;2386;42.138;24.746;2023-05-01T02:01:41;13.33;;;7.20;;
4744;SDS011;2386;42.138;24.746;2023-05-01T02:04:08;12.90;;;6.90;;
4744;SDS011;2386;42.138;24.746;2023-05-01T02:06:35;9.20;;;6.20;;
4744;SDS011;2386;42.138;24.746;2023-05-01T02:09:02;10.73;;;6.90;;
4744;SDS011;2386;42.138;24.746;2023-05-01T02:11:30;12.00;;;7.10;;
4744;SDS011;2386;42.138;24.746;2023-05-01T02:13:56;14.63;;;7.80;;
4744;SDS011;2386;42.138;24.746;2023-05-01T02:16:26;17.47;;;7.70;;
4744;SDS011;2386;42.138;24.746;2023-05-01T02:18:52;14.20;;;8.23;;
4744;SDS011;2386;42.138;24.746;2023-05-01T02:21:19;14.57;;;7.87;;
4744;SDS011;2386;42.138;24.746;2023-05-01T02:23:46;14.83;;;7.40;;
4744;SDS011;2386;42.138;24.746;2023-05-01T02:26:14;11.97;;;7.40;;
4744;SDS011;2386;42.138;24.746;2023-05-01T02:28:43;11.00;;;7.10;;
4744;SDS011;2386;42.138;24.746;2023-05-01T02:31:09;12.47;;;7.80;;
4744;SDS011;2386;42.138;24.746;2023-05-01T02:33:35;13.03;;;7.70;;
4744;SDS011;2386;42.138;24.746;2023-05-01T02:36:00;13.67;;;7.80;;
4744;SDS011;2386;42.138;24.746;2023-05-01T02:38:26;11.60;;;7.80;;
4744;SDS011;2386;42.138;24.746;2023-05-01T02:40:54;13.37;;;7.77;;
4744;SDS011;2386;42.138;24.746;2023-05-01T02:43:22;13.27;;;7.77;;
4744;SDS011;2386;42.138;24.746;2023-05-01T02:45:50;14.90;;;8.00;;
4744;SDS011;2386;42.138;24.746;2023-05-01T02:48:18;14.03;;;8.53;;
4744;SDS011;2386;42.138;24.746;2023-05-01T02:50:47;15.17;;;8.47;;
4744;SDS011;2386;42.138;24.746;2023-05-01T02:53:13;14.07;;;8.00;;
4744;SDS011;2386;42.138;24.746;2023-05-01T02:55:40;13.90;;;8.60;;
4744;SDS011;2386;42.138;24.746;2023-05-01T02:58:07;13.17;;;8.20;;
4744;SDS011;2386;42.138;24.746;2023-05-01T03:00:32;15.00;;;8.50;;
4744;SDS011;2386;42.138;24.746;2023-05-01T03:02:59;11.47;;;7.80;;
4744;SDS011;2386;42.138;24.746;2023-05-01T03:05:25;14.43;;;8.03;;
4744;SDS011;2386;42.138;24.746;2023-05-01T03:07:50;12.27;;;8.03;;
4744;SDS011;2386;42.138;24.746;2023-05-01T03:10:16;13.20;;;8.27;;
4744;SDS011;2386;42.138;24.746;2023-05-01T03:12:41;12.93;;;8.43;;
4744;SDS011;2386;42.138;24.746;2023-05-01T03:15:08;14.97;;;8.63;;
4744;SDS011;2386;42.138;24.746;2023-05-01T03:17:35;17.67;;;8.03;;
4744;SDS011;2386;42.138;24.746;2023-05-01T03:20:01;13.23;;;7.67;;
4744;SDS011;2386;42.138;24.746;2023-05-01T03:22:30;15.40;;;8.43;;
4744;SDS011;2386;42.138;24.746;2023-05-01T03:24:57;13.17;;;8.50;;
4744;SDS011;2386;42.138;24.746;2023-05-01T03:27:22;12.30;;;8.07;;
4744;SDS011;2386;42.138;24.746;2023-05-01T03:29:48;20.67;;;11.03;;
4744;SDS011;2386;42.138;24.746;2023-05-01T03:32:13;17.20;;;9.97;;
4744;SDS011;2386;42.138;24.746;2023-05-01T03:34:40;13.73;;;7.67;;
4744;SDS011;2386;42.138;24.746;2023-05-01T03:37:06;16.90;;;7.97;;
4744;SDS011;2386;42.138;24.746;2023-05-01T03:39:31;15.73;;;8.40;;
4744;SDS011;2386;42.138;24.746;2023-05-01T03:41:56;13.83;;;8.80;;
4744;SDS011;2386;42.138;24.746;2023-05-01T03:44:23;11.93;;;7.90;;
4744;SDS011;2386;42.138;24.746;2023-05-01T03:46:48;11.30;;;7.87;;
4744;SDS011;2386;42.138;24.746;2023-05-01T03:49:13;12.80;;;7.27;;
4744;SDS011;2386;42.138;24.746;2023-05-01T03:51:39;9.80;;;7.97;;
4744;SDS011;2386;42.138;24.746;2023-05-01T03:54:04;10.40;;;7.60;;
4744;SDS011;2386;42.138;24.746;2023-05-01T03:56:30;9.37;;;7.37;;
4744;SDS011;2386;42.138;24.746;2023-05-01T03:58:59;10.83;;;7.77;;
4744;SDS011;2386;42.138;24.746;2023-05-01T04:01:25;13.50;;;8.07;;
4744;SDS011;2386;42.138;24.746;2023-05-01T04:03:51;12.87;;;8.00;;
4744;SDS011;2386;42.138;24.746;2023-05-01T04:06:16;12.47;;;7.83;;
4744;SDS011;2386;42.138;24.746;2023-05-01T04:08:42;11.97;;;7.27;;
4744;SDS011;2386;42.138;24.746;2023-05-01T04:11:08;23.20;;;7.50;;
4744;SDS011;2386;42.138;24.746;2023-05-01T04:13:33;13.90;;;7.77;;
4744;SDS011;2386;42.138;24.746;2023-05-01T04:15:59;11.80;;;8.33;;
4744;SDS011;2386;42.138;24.746;2023-05-01T04:18:25;14.10;;;7.70;;
4744;SDS011;2386;42.138;24.746;2023-05-01T04:20:50;9.93;;;7.33;;
4744;SDS011;2386;42.138;24.746;2023-05-01T04:23:16;10.07;;;7.83;;
4744;SDS011;2386;42.138;24.746;2023-05-01T04:25:42;11.93;;;7.90;;
4744;SDS011;2386;42.138;24.746;2023-05-01T04:28:09;11.30;;;7.73;;
4744;SDS011;2386;42.138;24.746;2023-05-01T04:30:36;12.30;;;8.37;;
4744;SDS011;2386;42.138;24.746;2023-05-01T04:33:01;12.30;;;8.10;;
4744;SDS011;2386;42.138;24.746;2023-05-01T04:35:27;13.00;;;8.17;;
4744;SDS011;2386;42.138;24.746;2023-05-01T04:37:53;11.10;;;7.93;;
4744;SDS011;2386;42.138;24.746;2023-05-01T04:40:18;12.00;;;7.70;;
4744;SDS011;2386;42.138;24.746;2023-05-01T04:42:44;12.40;;;7.93;;
4744;SDS011;2386;42.138;24.746;2023-05-01T04:45:10;14.60;;;8.80;;
4744;SDS011;2386;42.138;24.746;2023-05-01T04:47:35;14.10;;;7.83;;
4744;SDS011;2386;42.138;24.746;2023-05-01T04:50:01;13.87;;;8.13;;
4744;SDS011;2386;42.138;24.746;2023-05-01T04:52:26;12.60;;;7.93;;
4744;SDS011;2386;42.138;24.746;2023-05-01T04:54:52;16.87;;;8.47;;
4744;SDS011;2386;42.138;24.746;2023-05-01T04:57:17;12.47;;;7.67;;
4744;SDS011;2386;42.138;24.746;2023-05-01T04:59:42;10.80;;;7.47;;
4744;SDS011;2386;42.138;24.746;2023-05-01T05:02:08;13.93;;;8.27;;
4744;SDS011;2386;42.138;24.746;2023-05-01T05:04:33;12.60;;;7.90;;
4744;SDS011;2386;42.138;24.746;2023-05-01T05:06:59;16.60;;;7.77;;
4744;SDS011;2386;42.138;24.746;2023-05-01T05:09:24;10.90;;;7.13;;
4744;SDS011;2386;42.138;24.746;2023-05-01T05:11:50;12.10;;;7.80;;
4744;SDS011;2386;42.138;24.746;2023-05-01T05:14:15;12.57;;;7.80;;
4744;SDS011;2386;42.138;24.746;2023-05-01T05:16:40;11.53;;;7.47;;
4744;SDS011;2386;42.138;24.746;2023-05-01T05:19:06;12.20;;;7.97;;
4744;SDS011;2386;42.138;24.746;2023-05-01T05:21:31;11.90;;;7.40;;
4744;SDS011;2386;42.138;24.746;2023-05-01T05:23:57;13.67;;;7.17;;
4744;SDS011;2386;42.138;24.746;2023-05-01T05:26:22;12.20;;;7.67;;
4744;SDS011;2386;42.138;24.746;2023-05-01T05:28:49;12.93;;;7.10;;
4744;SDS011;2386;42.138;24.746;2023-05-01T05:31:15;16.67;;;8.00;;
4744;SDS011;2386;42.138;24.746;2023-05-01T05:33:40;14.90;;;8.30;;
4744;SDS011;2386;42.138;24.746;2023-05-01T05:36:06;13.63;;;7.77;;
4744;SDS011;2386;42.138;24.746;2023-05-01T05:38:31;16.70;;;8.00;;
4744;SDS011;2386;42.138;24.746;2023-05-01T05:40:56;13.47;;;7.43;;
4744;SDS011;2386;42.138;24.746;2023-05-01T05:43:23;13.10;;;8.03;;
4744;SDS011;2386;42.138;24.746;2023-05-01T05:45:48;13.03;;;6.93;;
4744;SDS011;2386;42.138;24.746;2023-05-01T05:48:14;9.70;;;6.27;;
4744;SDS011;2386;42.138;24.746;2023-05-01T05:50:39;11.60;;;7.23;;
4744;SDS011;2386;42.138;24.746;2023-05-01T05:53:04;11.07;;;7.10;;
4744;SDS011;2386;42.138;24.746;2023-05-01T05:55:30;10.00;;;6.70;;
4744;SDS011;2386;42.138;24.746;2023-05-01T05:57:55;9.60;;;5.97;;
4744;SDS011;2386;42.138;24.746;2023-05-01T06:00:21;11.10;;;6.50;;
4744;SDS011;2386;42.138;24.746;2023-05-01T06:02:46;16.47;;;6.27;;
4744;SDS011;2386;42.138;24.746;2023-05-01T06:05:12;11.63;;;6.37;;
4744;SDS011;2386;42.138;24.746;2023-05-01T06:07:37;11.37;;;6.10;;
4744;SDS011;2386;42.138;24.746;2023-05-01T06:10:03;10.53;;;6.53;;
4744;SDS011;2386;42.138;24.746;2023-05-01T06:12:29;9.67;;;6.20;;
4744;SDS011;2386;42.138;24.746;2023-05-01T06:14:56;11.20;;;7.00;;
4744;SDS011;2386;42.138;24.746;2023-05-01T06:17:22;9.67;;;6.73;;
4744;SDS011;2386;42.138;24.746;2023-05-01T06:19:48;19.13;;;7.83;;
4744;SDS011;2386;42.138;24.746;2023-05-01T06:22:16;9.83;;;5.63;;
4744;SDS011;2386;42.138;24.746;2023-05-01T06:24:42;11.80;;;6.20;;
4744;SDS011;2386;42.138;24.746;2023-05-01T06:27:07;11.60;;;6.50;;
4744;SDS011;2386;42.138;24.746;2023-05-01T06:29:33;20.17;;;7.03;;
4744;SDS011;2386;42.138;24.746;2023-05-01T06:31:58;11.50;;;6.40;;
4744;SDS011;2386;42.138;24.746;2023-05-01T06:34:23;9.93;;;6.30;;
4744;SDS011;2386;42.138;24.746;2023-05-01T06:36:49;12.03;;;7.27;;
4744;SDS011;2386;42.138;24.746;2023-05-01T06:39:14;13.47;;;7.00;;
4744;SDS011;2386;42.138;24.746;2023-05-01T06:41:40;10.93;;;5.80;;
4744;SDS011;2386;42.138;24.746;2023-05-01T06:44:05;10.20;;;5.90;;
4744;SDS011;2386;42.138;24.746;2023-05-01T06:46:30;12.20;;;6.40;;
4744;SDS011;2386;42.138;24.746;2023-05-01T06:48:56;9.90;;;5.53;;
4744;SDS011;2386;42.138;24.746;2023-05-01T06:51:21;13.90;;;5.20;;
4744;SDS011;2386;42.138;24.746;2023-05-01T06:53:47;13.43;;;6.00;;
4744;SDS011;2386;42.138;24.746;2023-05-01T06:56:12;20.00;;;5.93;;
4744;SDS011;2386;42.138;24.746;2023-05-01T06:58:37;11.80;;;5.37;;
4744;SDS011;2386;42.138;24.746;2023-05-01T07:01:03;14.23;;;6.00;;
4744;SDS011;2386;42.138;24.746;2023-05-01T07:03:28;9.10;;;5.20;;
4744;SDS011;2386;42.138;24.746;2023-05-01T07:05:54;8.23;;;5.60;;
4744;SDS011;2386;42.138;24.746;2023-05-01T07:08:20;12.30;;;6.10;;
4744;SDS011;2386;42.138;24.746;2023-05-01T07:10:46;11.13;;;6.20;;
4744;SDS011;2386;42.138;24.746;2023-05-01T07:13:11;10.70;;;5.40;;
4744;SDS011;2386;42.138;24.746;2023-05-01T07:15:36;11.60;;;5.50;;
4744;SDS011;2386;42.138;24.746;2023-05-01T07:18:02;9.70;;;6.00;;
4744;SDS011;2386;42.138;24.746;2023-05-01T07:20:30;20.53;;;5.03;;
4744;SDS011;2386;42.138;24.746;2023-05-01T07:22:56;9.70;;;5.60;;
4744;SDS011;2386;42.138;24.746;2023-05-01T07:25:21;8.77;;;5.47;;
4744;SDS011;2386;42.138;24.746;2023-05-01T07:27:47;14.73;;;6.00;;
4744;SDS011;2386;42.138;24.746;2023-05-01T07:30:12;11.90;;;5.87;;
4744;SDS011;2386;42.138;24.746;2023-05-01T07:32:38;18.53;;;6.77;;
4744;SDS011;2386;42.138;24.746;2023-05-01T07:35:03;10.20;;;5.70;;
4744;SDS011;2386;42.138;24.746;2023-05-01T07:37:29;7.47;;;5.33;;
4744;SDS011;2386;42.138;24.746;2023-05-01T07:39:55;16.10;;;6.07;;
4744;SDS011;2386;42.138;24.746;2023-05-01T07:42:21;9.23;;;5.17;;
4744;SDS011;2386;42.138;24.746;2023-05-01T07:44:46;7.40;;;5.10;;
4744;SDS011;2386;42.138;24.746;2023-05-01T07:47:14;6.43;;;4.70;;
4744;SDS011;2386;42.138;24.746;2023-05-01T07:49:40;7.30;;;4.83;;
4744;SDS011;2386;42.138;24.746;2023-05-01T07:52:05;6.40;;;4.73;;
4744;SDS011;2386;42.138;24.746;2023-05-01T07:54:33;6.40;;;4.97;;
4744;SDS011;2386;42.138;24.746;2023-05-01T07:56:59;5.67;;;4.70;;
4744;SDS011;2386;42.138;24.746;2023-05-01T07:59:26;8.60;;;5.30;;
4744;SDS011;2386;42.138;24.746;2023-05-01T08:01:52;5.60;;;4.80;;
4744;SDS011;2386;42.138;24.746;2023-05-01T08:04:17;11.47;;;5.33;;
4744;SDS011;2386;42.138;24.746;2023-05-01T08:06:42;6.07;;;5.07;;
4744;SDS011;2386;42.138;24.746;2023-05-01T08:09:08;5.50;;;5.00;;
4744;SDS011;2386;42.138;24.746;2023-05-01T08:11:33;7.03;;;4.83;;
4744;SDS011;2386;42.138;24.746;2023-05-01T08:13:59;7.70;;;5.17;;
4744;SDS011;2386;42.138;24.746;2023-05-01T08:16:25;8.83;;;5.53;;
4744;SDS011;2386;42.138;24.746;2023-05-01T08:18:50;7.47;;;5.20;;
4744;SDS011;2386;42.138;24.746;2023-05-01T08:21:16;12.33;;;4.93;;
4744;SDS011;2386;42.138;24.746;2023-05-01T08:23:41;6.87;;;4.80;;
4744;SDS011;2386;42.138;24.746;2023-05-01T08:26:06;10.90;;;4.87;;
4744;SDS011;2386;42.138;24.746;2023-05-01T08:28:33;6.40;;;4.80;;
4744;SDS011;2386;42.138;24.746;2023-05-01T08:30:59;29.30;;;5.53;;
4744;SDS011;2386;42.138;24.746;2023-05-01T08:33:25;17.23;;;6.70;;
4744;SDS011;2386;42.138;24.746;2023-05-01T08:35:51;8.03;;;5.20;;
4744;SDS011;2386;42.138;24.746;2023-05-01T08:38:16;9.57;;;5.13;;
4744;SDS011;2386;42.138;24.746;2023-05-01T08:40:43;14.83;;;5.10;;
4744;SDS011;2386;42.138;24.746;2023-05-01T08:43:15;7.13;;;4.73;;
4744;SDS011;2386;42.138;24.746;2023-05-01T08:45:41;5.83;;;5.03;;
4744;SDS011;2386;42.138;24.746;2023-05-01T08:48:07;23.33;;;5.50;;
4744;SDS011;2386;42.138;24.746;2023-05-01T08:50:34;7.13;;;5.00;;
4744;SDS011;2386;42.138;24.746;2023-05-01T08:53:01;13.97;;;4.87;;
4744;SDS011;2386;42.138;24.746;2023-05-01T08:55:27;5.30;;;4.40;;
4744;SDS011;2386;42.138;24.746;2023-05-01T08:57:54;6.83;;;4.30;;
4744;SDS011;2386;42.138;24.746;2023-05-01T09:00:22;7.63;;;4.77;;
4744;SDS011;2386;42.138;24.746;2023-05-01T09:02:49;8.73;;;4.97;;
4744;SDS011;2386;42.138;24.746;2023-05-01T09:05:15;7.20;;;4.17;;
4744;SDS011;2386;42.138;24.746;2023-05-01T09:07:43;6.60;;;4.40;;
4744;SDS011;2386;42.138;24.746;2023-05-01T09:10:10;4.60;;;4.13;;
4744;SDS011;2386;42.138;24.746;2023-05-01T09:12:48;8.47;;;3.80;;
4744;SDS011;2386;42.138;24.746;2023-05-01T09:15:20;9.27;;;4.90;;
4744;SDS011;2386;42.138;24.746;2023-05-01T09:17:46;9.10;;;4.40;;
4744;SDS011;2386;42.138;24.746;2023-05-01T09:20:12;4.40;;;3.60;;
4744;SDS011;2386;42.138;24.746;2023-05-01T09:22:38;6.97;;;4.53;;
4744;SDS011;2386;42.138;24.746;2023-05-01T09:25:03;12.70;;;4.13;;
4744;SDS011;2386;42.138;24.746;2023-05-01T09:27:33;10.37;;;4.33;;
4744;SDS011;2386;42.138;24.746;2023-05-01T09:30:00;5.27;;;4.00;;
4744;SDS011;2386;42.138;24.746;2023-05-01T09:32:26;6.97;;;4.20;;
4744;SDS011;2386;42.138;24.746;2023-05-01T09:34:52;5.73;;;4.20;;
4744;SDS011;2386;42.138;24.746;2023-05-01T09:42:52;10.77;;;4.97;;
4744;SDS011;2386;42.138;24.746;2023-05-01T09:45:20;10.13;;;4.20;;
4744;SDS011;2386;42.138;24.746;2023-05-01T09:47:47;6.73;;;4.60;;
4744;SDS011;2386;42.138;24.746;2023-05-01T09:50:29;11.17;;;4.70;;
4744;SDS011;2386;42.138;24.746;2023-05-01T09:52:56;6.90;;;4.10;;
4744;SDS011;2386;42.138;24.746;2023-05-01T09:55:21;7.13;;;4.70;;
4744;SDS011;2386;42.138;24.746;2023-05-01T09:57:50;6.73;;;5.23;;
4744;SDS011;2386;42.138;24.746;2023-05-01T10:00:16;5.80;;;3.90;;
4744;SDS011;2386;42.138;24.746;2023-05-01T10:02:45;5.70;;;3.80;;
4744;SDS011;2386;42.138;24.746;2023-05-01T10:05:11;5.50;;;3.90;;
4744;SDS011;2386;42.138;24.746;2023-05-01T10:07:38;7.97;;;4.30;;
4744;SDS011;2386;42.138;24.746;2023-05-01T10:10:19;6.60;;;4.30;;
4744;SDS011;2386;42.138;24.746;2023-05-01T10:12:46;6.43;;;4.20;;
4744;SDS011;2386;42.138;24.746;2023-05-01T10:15:12;5.83;;;3.80;;
4744;SDS011;2386;42.138;24.746;2023-05-01T10:17:39;10.37;;;4.97;;
4744;SDS011;2386;42.138;24.746;2023-05-01T10:20:06;7.40;;;4.27;;
4744;SDS011;2386;42.138;24.746;2023-05-01T10:22:33;5.07;;;3.70;;
4744;SDS011;2386;42.138;24.746;2023-05-01T10:24:58;11.90;;;4.03;;
4744;SDS011;2386;42.138;24.746;2023-05-01T10:27:25;14.10;;;4.83;;
4744;SDS011;2386;42.138;24.746;2023-05-01T10:29:53;10.00;;;4.17;;
4744;SDS011;2386;42.138;24.746;2023-05-01T10:32:19;6.13;;;4.47;;
4744;SDS011;2386;42.138;24.746;2023-05-01T10:34:55;5.53;;;3.93;;
4744;SDS011;2386;42.138;24.746;2023-05-01T10:37:33;5.30;;;4.00;;
4744;SDS011;2386;42.138;24.746;2023-05-01T10:45:52;6.40;;;3.70;;
4744;SDS011;2386;42.138;24.746;2023-05-01T10:53:42;4.40;;;3.53;;
4744;SDS011;2386;42.138;24.746;2023-05-01T10:58:54;9.90;;;4.50;;
4744;SDS011;2386;42.138;24.746;2023-05-01T11:03:56;6.43;;;4.27;;
4744;SDS011;2386;42.138;24.746;2023-05-01T11:06:28;6.33;;;4.07;;
4744;SDS011;2386;42.138;24.746;2023-05-01T11:08:53;8.57;;;4.17;;
4744;SDS011;2386;42.138;24.746;2023-05-01T11:14:00;4.70;;;3.80;;
4744;SDS011;2386;42.138;24.746;2023-05-01T11:21:30;6.03;;;3.70;;
4744;SDS011;2386;42.138;24.746;2023-05-01T11:24:16;4.83;;;3.73;;
4744;SDS011;2386;42.138;24.746;2023-05-01T11:26:42;5.33;;;3.60;;
4744;SDS011;2386;42.138;24.746;2023-05-01T11:29:09;15.23;;;4.20;;
4744;SDS011;2386;42.138;24.746;2023-05-01T11:31:35;5.70;;;3.90;;
4744;SDS011;2386;42.138;24.746;2023-05-01T11:34:01;9.00;;;3.80;;
4744;SDS011;2386;42.138;24.746;2023-05-01T11:36:27;12.00;;;3.83;;
4744;SDS011;2386;42.138;24.746;2023-05-01T11:38:55;6.60;;;4.10;;
4744;SDS011;2386;42.138;24.746;2023-05-01T11:41:23;17.63;;;4.90;;
4744;SDS011;2386;42.138;24.746;2023-05-01T11:46:26;5.50;;;3.80;;
4744;SDS011;2386;42.138;24.746;2023-05-01T11:48:53;7.77;;;4.50;;
4744;SDS011;2386;42.138;24.746;2023-05-01T11:51:20;7.00;;;4.33;;
4744;SDS011;2386;42.138;24.746;2023-05-01T11:56:31;11.50;;;4.43;;
4744;SDS011;2386;42.138;24.746;2023-05-01T11:58:59;13.83;;;4.40;;
4744;SDS011;2386;42.138;24.746;2023-05-01T12:01:37;11.37;;;4.50;;
4744;SDS011;2386;42.138;24.746;2023-05-01T12:04:04;8.20;;;4.50;;
4744;SDS011;2386;42.138;24.746;2023-05-01T12:09:09;6.20;;;4.10;;
4744;SDS011;2386;42.138;24.746;2023-05-01T12:11:40;8.10;;;4.07;;
4744;SDS011;2386;42.138;24.746;2023-05-01T12:14:06;8.50;;;3.37;;
4744;SDS011;2386;42.138;24.746;2023-05-01T12:16:32;8.93;;;3.60;;
4744;SDS011;2386;42.138;24.746;2023-05-01T12:18:58;4.50;;;3.13;;
4744;SDS011;2386;42.138;24.746;2023-05-01T12:21:24;5.63;;;2.87;;
4744;SDS011;2386;42.138;24.746;2023-05-01T12:23:52;11.67;;;3.17;;
4744;SDS011;2386;42.138;24.746;2023-05-01T12:26:21;14.90;;;4.40;;
4744;SDS011;2386;42.138;24.746;2023-05-01T12:28:57;6.13;;;3.40;;
4744;SDS011;2386;42.138;24.746;2023-05-01T12:31:24;6.50;;;2.97;;
4744;SDS011;2386;42.138;24.746;2023-05-01T12:33:52;5.30;;;2.60;;
4744;SDS011;2386;42.138;24.746;2023-05-01T12:36:18;4.53;;;3.27;;
4744;SDS011;2386;42.138;24.746;2023-05-01T12:41:31;6.23;;;3.50;;
4744;SDS011;2386;42.138;24.746;2023-05-01T12:43:56;3.13;;;2.83;;
4744;SDS011;2386;42.138;24.746;2023-05-01T12:46:22;2.87;;;2.67;;
4744;SDS011;2386;42.138;24.746;2023-05-01T12:48:47;3.70;;;2.87;;
4744;SDS011;2386;42.138;24.746;2023-05-01T12:51:17;3.20;;;2.63;;
4744;SDS011;2386;42.138;24.746;2023-05-01T12:53:43;8.70;;;3.70;;
4744;SDS011;2386;42.138;24.746;2023-05-01T12:56:16;4.50;;;2.80;;
4744;SDS011;2386;42.138;24.746;2023-05-01T12:58:47;4.43;;;2.80;;
4744;SDS011;2386;42.138;24.746;2023-05-01T13:01:21;14.93;;;3.87;;
4744;SDS011;2386;42.138;24.746;2023-05-01T13:03:51;5.07;;;3.10;;
4744;SDS011;2386;42.138;24.746;2023-05-01T13:06:17;2.40;;;2.30;;
4744;SDS011;2386;42.138;24.746;2023-05-01T13:08:42;7.40;;;3.10;;
4744;SDS011;2386;42.138;24.746;2023-05-01T13:11:12;4.07;;;2.70;;
4744;SDS011;2386;42.138;24.746;2023-05-01T13:13:40;5.30;;;3.20;;
4744;SDS011;2386;42.138;24.746;2023-05-01T13:16:08;7.97;;;2.80;;
4744;SDS011;2386;42.138;24.746;2023-05-01T13:18:45;3.90;;;2.40;;
4744;SDS011;2386;42.138;24.746;2023-05-01T13:21:13;4.93;;;2.50;;
4744;SDS011;2386;42.138;24.746;2023-05-01T13:23:40;9.80;;;2.90;;
4744;SDS011;2386;42.138;24.746;2023-05-01T13:26:07;4.17;;;2.80;;
4744;SDS011;2386;42.138;24.746;2023-05-01T13:28:35;5.30;;;2.70;;
4744;SDS011;2386;42.138;24.746;2023-05-01T13:31:12;3.97;;;2.33;;
4744;SDS011;2386;42.138;24.746;2023-05-01T13:33:41;4.60;;;3.00;;
4744;SDS011;2386;42.138;24.746;2023-05-01T13:36:12;8.23;;;3.57;;
4744;SDS011;2386;42.138;24.746;2023-05-01T13:38:45;6.50;;;3.30;;
4744;SDS011;2386;42.138;24.746;2023-05-01T13:41:17;4.47;;;2.90;;
4744;SDS011;2386;42.138;24.746;2023-05-01T13:43:48;4.30;;;2.47;;
4744;SDS011;2386;42.138;24.746;2023-05-01T13:46:16;5.20;;;3.03;;
4744;SDS011;2386;42.138;24.746;2023-05-01T13:48:42;4.87;;;4.00;;
4744;SDS011;2386;42.138;24.746;2023-05-01T13:51:08;5.80;;;3.13;;
4744;SDS011;2386;42.138;24.746;2023-05-01T13:53:35;4.97;;;3.13;;
4744;SDS011;2386;42.138;24.746;2023-05-01T13:56:02;3.77;;;2.77;;
4744;SDS011;2386;42.138;24.746;2023-05-01T13:58:29;3.43;;;2.63;;
4744;SDS011;2386;42.138;24.746;2023-05-01T14:00:55;9.53;;;2.80;;
4744;SDS011;2386;42.138;24.746;2023-05-01T14:03:20;3.37;;;2.67;;
4744;SDS011;2386;42.138;24.746;2023-05-01T14:05:46;4.97;;;2.87;;
4744;SDS011;2386;42.138;24.746;2023-05-01T14:08:12;5.03;;;3.10;;
4744;SDS011;2386;42.138;24.746;2023-05-01T14:10:39;6.50;;;3.20;;
4744;SDS011;2386;42.138;24.746;2023-05-01T14:13:04;10.10;;;3.10;;
4744;SDS011;2386;42.138;24.746;2023-05-01T14:15:33;5.83;;;3.23;;
4744;SDS011;2386;42.138;24.746;2023-05-01T14:18:03;6.10;;;2.90;;
4744;SDS011;2386;42.138;24.746;2023-05-01T14:20:31;3.00;;;2.73;;
4744;SDS011;2386;42.138;24.746;2023-05-01T14:22:57;3.90;;;2.30;;
4744;SDS011;2386;42.138;24.746;2023-05-01T14:25:31;3.27;;;2.70;;
4744;SDS011;2386;42.138;24.746;2023-05-01T14:27:59;3.53;;;2.17;;
4744;SDS011;2386;42.138;24.746;2023-05-01T14:32:53;3.65;;;2.40;;
4744;SDS011;2386;42.138;24.746;2023-05-01T14:35:19;8.07;;;3.30;;
4744;SDS011;2386;42.138;24.746;2023-05-01T14:37:46;8.40;;;5.63;;
4744;SDS011;2386;42.138;24.746;2023-05-01T14:40:12;18.90;;;16.98;;
4744;SDS011;2386;42.138;24.746;2023-05-01T14:42:41;5.45;;;4.85;;
4744;SDS011;2386;42.138;24.746;2023-05-01T14:45:10;4.88;;;3.88;;
4744;SDS011;2386;42.138;24.746;2023-05-01T14:47:38;5.88;;;4.35;;
4744;SDS011;2386;42.138;24.746;2023-05-01T14:50:08;3.53;;;2.53;;
4744;SDS011;2386;42.138;24.746;2023-05-01T14:52:36;7.97;;;4.75;;
4744;SDS011;2386;42.138;24.746;2023-05-01T14:55:03;3.23;;;2.90;;
4744;SDS011;2386;42.138;24.746;2023-05-01T14:57:28;11.80;;;7.73;;
4744;SDS011;2386;42.138;24.746;2023-05-01T14:59:54;4.10;;;2.87;;
4744;SDS011;2386;42.138;24.746;2023-05-01T15:02:19;2.77;;;2.57;;
4744;SDS011;2386;42.138;24.746;2023-05-01T15:04:45;3.10;;;2.80;;
4744;SDS011;2386;42.138;24.746;2023-05-01T15:07:10;5.77;;;3.53;;
4744;SDS011;2386;42.138;24.746;2023-05-01T15:09:35;4.30;;;2.73;;
4744;SDS011;2386;42.138;24.746;2023-05-01T15:12:01;5.00;;;3.00;;
4744;SDS011;2386;42.138;24.746;2023-05-01T15:14:27;9.07;;;4.00;;
4744;SDS011;2386;42.138;24.746;2023-05-01T15:16:54;9.60;;;3.70;;
4744;SDS011;2386;42.138;24.746;2023-05-01T15:19:20;9.90;;;4.00;;
4744;SDS011;2386;42.138;24.746;2023-05-01T15:21:46;5.43;;;3.30;;
4744;SDS011;2386;42.138;24.746;2023-05-01T15:24:11;10.30;;;4.03;;
4744;SDS011;2386;42.138;24.746;2023-05-01T15:26:37;12.27;;;4.30;;
4744;SDS011;2386;42.138;24.746;2023-05-01T15:29:02;6.77;;;4.10;;
4744;SDS011;2386;42.138;24.746;2023-05-01T15:31:27;13.43;;;4.60;;
4744;SDS011;2386;42.138;24.746;2023-05-01T15:33:54;7.83;;;4.43;;
4744;SDS011;2386;42.138;24.746;2023-05-01T15:36:19;9.30;;;4.67;;
4744;SDS011;2386;42.138;24.746;2023-05-01T15:38:45;14.13;;;5.60;;
4744;SDS011;2386;42.138;24.746;2023-05-01T15:41:11;7.50;;;4.37;;
4744;SDS011;2386;42.138;24.746;2023-05-01T15:43:36;8.90;;;4.90;;
4744;SDS011;2386;42.138;24.746;2023-05-01T15:46:02;7.60;;;4.80;;
4744;SDS011;2386;42.138;24.746;2023-05-01T15:48:29;10.60;;;4.90;;
4744;SDS011;2386;42.138;24.746;2023-05-01T15:50:55;9.13;;;4.77;;
4744;SDS011;2386;42.138;24.746;2023-05-01T15:53:20;8.03;;;4.10;;
4744;SDS011;2386;42.138;24.746;2023-05-01T15:55:46;13.63;;;4.63;;